createdAt,value
2018-03-07T00:03:55.017Z,78.40
2018-03-07T00:08:57.660Z,77.90
2018-03-07T00:14:00.303Z,78.70
2018-03-07T00:19:03.012Z,78.10
2018-03-07T00:24:05.917Z,78.40
2018-03-07T00:29:09.296Z,79.30
2018-03-07T00:34:12.024Z,79.30
2018-03-07T00:39:15.493Z,79.60
2018-03-07T00:44:18.320Z,79.60
2018-03-07T00:49:21.216Z,79.50
2018-03-07T00:54:23.955Z,80.20
2018-03-07T00:59:26.649Z,80.50
2018-03-07T01:04:29.384Z,80.70
2018-03-07T01:09:32.022Z,81.00
2018-03-07T01:14:35.056Z,80.10
2018-03-07T01:19:37.938Z,80.20
2018-03-07T01:24:40.848Z,79.80
2018-03-07T01:29:43.701Z,79.90
2018-03-07T01:34:46.309Z,80.60
2018-03-07T01:39:48.981Z,81.00
2018-03-07T01:44:52.375Z,81.30
2018-03-07T01:49:55.042Z,81.70
2018-03-07T01:54:57.740Z,81.50
2018-03-07T02:00:01.879Z,81.10
2018-03-07T02:05:04.619Z,81.10
2018-03-07T02:10:07.271Z,81.90
2018-03-07T02:15:10.009Z,81.10
2018-03-07T02:20:12.632Z,81.30
2018-03-07T02:25:16.856Z,81.40
2018-03-07T02:30:19.693Z,81.70
2018-03-07T02:35:22.373Z,82.70
2018-03-07T02:40:25.273Z,82.40
2018-03-07T02:45:27.993Z,82.80
2018-03-07T02:50:30.730Z,82.10
2018-03-07T02:55:34.013Z,82.40
2018-03-07T03:00:36.622Z,82.10
2018-03-07T03:05:39.282Z,82.30
2018-03-07T03:10:42.838Z,82.70
2018-03-07T03:15:45.475Z,82.70
2018-03-07T03:20:49.091Z,82.80
2018-03-07T03:25:52.920Z,83.10
2018-03-07T03:30:55.610Z,83.10
2018-03-07T03:35:58.315Z,82.80
2018-03-07T03:41:03.349Z,82.60
2018-03-07T03:46:06.627Z,82.60
2018-03-07T03:51:10.083Z,82.20
2018-03-07T03:56:13.488Z,81.60
2018-03-07T04:01:17.771Z,81.70
2018-03-07T04:06:21.174Z,82.10
2018-03-07T04:11:23.831Z,82.00
2018-03-07T04:16:27.320Z,83.60
2018-03-07T04:21:29.931Z,83.50
2018-03-07T04:26:32.837Z,84.30
2018-03-07T04:31:35.523Z,85.50
2018-03-07T04:36:38.224Z,85.20
2018-03-07T04:41:40.875Z,84.90
2018-03-07T04:46:44.242Z,84.50
2018-03-07T04:51:47.369Z,85.00
2018-03-07T04:56:50.043Z,84.30
2018-03-07T05:01:52.702Z,85.80
2018-03-07T05:06:56.063Z,84.50
2018-03-07T05:11:59.490Z,84.90
2018-03-07T05:17:02.395Z,85.40
2018-03-07T05:22:05.176Z,85.30
2018-03-07T05:27:08.007Z,84.80
2018-03-07T05:32:10.856Z,83.50
2018-03-07T05:37:14.438Z,84.10
2018-03-07T05:42:17.855Z,84.10
2018-03-07T05:47:20.522Z,83.70
2018-03-07T05:52:23.208Z,83.70
2018-03-07T05:57:26.025Z,81.90
2018-03-07T06:02:28.769Z,82.90
2018-03-07T06:07:31.500Z,87.20
2018-03-07T06:12:34.149Z,89.40
2018-03-07T06:17:37.390Z,90.00
2018-03-07T06:22:39.984Z,90.00
2018-03-07T06:27:42.841Z,90.10
2018-03-07T06:32:46.093Z,90.10
2018-03-07T06:37:48.759Z,90.10
2018-03-07T06:42:52.910Z,90.50
2018-03-07T06:47:56.175Z,90.50
2018-03-07T06:52:58.770Z,90.10
2018-03-07T06:58:02.381Z,91.00
2018-03-07T07:03:05.735Z,90.90
2018-03-07T07:08:08.337Z,90.90
2018-03-07T07:13:11.622Z,91.00
2018-03-07T07:18:14.383Z,91.10
2018-03-07T07:23:18.550Z,91.30
2018-03-07T07:28:21.177Z,91.40
2018-03-07T07:33:24.674Z,91.00
2018-03-07T07:38:27.959Z,91.30
2018-03-07T07:43:31.373Z,91.20
2018-03-07T07:48:34.858Z,91.20
2018-03-07T07:53:37.772Z,91.30
2018-03-07T07:58:40.356Z,90.80
2018-03-07T08:03:43.246Z,90.90
2018-03-07T08:08:46.104Z,90.80
2018-03-07T08:13:48.928Z,91.00
2018-03-07T08:18:52.507Z,90.60
2018-03-07T08:23:55.759Z,90.50
2018-03-07T08:28:59.838Z,89.40
2018-03-07T08:34:02.605Z,89.30
2018-03-07T08:39:05.233Z,89.10
2018-03-07T08:44:07.879Z,88.30
2018-03-07T08:49:13.830Z,87.50
2018-03-07T08:54:16.804Z,88.00
2018-03-07T08:59:19.452Z,86.00
2018-03-07T09:04:22.428Z,85.70
2018-03-07T09:09:25.073Z,85.30
2018-03-07T09:14:27.746Z,86.20
2018-03-07T09:19:30.641Z,85.00
2018-03-07T09:24:34.816Z,85.20
2018-03-07T09:29:38.149Z,84.70
2018-03-07T09:34:40.920Z,84.40
2018-03-07T09:39:43.817Z,84.10
2018-03-07T09:44:46.403Z,83.70
2018-03-07T09:49:49.043Z,83.50
2018-03-07T09:54:52.485Z,83.00
2018-03-07T09:59:55.078Z,82.80
2018-03-07T10:04:57.694Z,82.00
2018-03-07T10:10:02.619Z,80.40
2018-03-07T10:15:05.884Z,80.40
2018-03-07T10:20:09.241Z,79.30
2018-03-07T10:25:11.900Z,79.20
2018-03-07T10:30:15.207Z,79.10
2018-03-07T10:35:17.806Z,77.40
2018-03-07T10:40:21.094Z,77.20
2018-03-07T10:45:24.078Z,75.90
2018-03-07T10:50:27.400Z,74.00
2018-03-07T10:55:33.375Z,73.00
2018-03-07T11:00:37.159Z,72.80
2018-03-07T11:05:40.554Z,70.90
2018-03-07T11:10:43.357Z,70.90
2018-03-07T11:15:46.229Z,71.50
2018-03-07T11:20:49.054Z,70.60
2018-03-07T11:25:52.378Z,69.20
2018-03-07T11:30:55.197Z,70.00
2018-03-07T11:35:58.823Z,69.60
2018-03-07T11:41:02.934Z,69.60
2018-03-07T11:46:05.511Z,69.50
2018-03-07T11:51:08.754Z,69.20
2018-03-07T11:56:11.422Z,70.20
2018-03-07T12:01:14.609Z,69.90
2018-03-07T12:06:18.571Z,70.80
2018-03-07T12:11:21.804Z,70.80
2018-03-07T12:16:25.035Z,70.90
2018-03-07T12:21:27.831Z,70.90
2018-03-07T12:26:30.808Z,72.60
2018-03-07T12:31:33.655Z,73.00
2018-03-07T12:36:36.500Z,74.10
2018-03-07T12:41:39.173Z,73.80
2018-03-07T12:46:42.443Z,73.50
2018-03-07T12:51:45.660Z,73.10
2018-03-07T12:56:48.460Z,72.80
2018-03-07T13:01:51.711Z,73.20
2018-03-07T13:06:54.313Z,73.60
2018-03-07T13:11:57.626Z,73.60
2018-03-07T13:17:01.220Z,73.70
2018-03-07T13:22:03.827Z,73.60
2018-03-07T13:27:06.376Z,73.80
2018-03-07T13:32:08.916Z,74.20
2018-03-07T13:37:11.683Z,74.10
2018-03-07T13:42:14.877Z,75.10
2018-03-07T13:47:17.692Z,75.10
2018-03-07T13:52:20.966Z,73.90
2018-03-07T13:57:24.274Z,71.10
2018-03-07T14:02:28.425Z,71.20
2018-03-07T14:07:32.556Z,74.40
2018-03-07T14:12:35.798Z,72.20
2018-03-07T14:17:38.349Z,72.30
2018-03-07T14:22:42.709Z,68.20
2018-03-07T14:27:45.302Z,68.20
2018-03-07T14:32:49.366Z,67.60
2018-03-07T14:37:52.537Z,67.90
2018-03-07T14:42:55.883Z,67.10
2018-03-07T14:47:58.437Z,67.10
2018-03-07T14:53:01.008Z,66.70
2018-03-07T14:58:03.613Z,67.30
2018-03-07T15:03:06.170Z,68.60
2018-03-07T15:08:08.744Z,68.20
2018-03-07T15:13:12.020Z,68.40
2018-03-07T15:18:14.570Z,67.60
2018-03-07T15:23:17.909Z,68.70
2018-03-07T15:28:20.808Z,68.70
2018-03-07T15:33:23.407Z,68.50
2018-03-07T15:38:26.246Z,71.20
2018-03-07T15:43:29.809Z,69.30
2018-03-07T15:48:33.032Z,69.30
2018-03-07T15:53:35.613Z,71.30
2018-03-07T15:58:38.195Z,68.20
2018-03-07T16:03:40.761Z,69.00
2018-03-07T16:08:43.696Z,66.90
2018-03-07T16:13:46.572Z,67.20
2018-03-07T16:18:49.152Z,67.70
2018-03-07T16:23:51.726Z,67.00
2018-03-07T16:28:55.036Z,67.40
2018-03-07T16:34:00.923Z,67.40
2018-03-07T16:39:04.179Z,68.30
2018-03-07T16:44:06.760Z,68.20
2018-03-07T16:49:10.743Z,68.90
2018-03-07T16:54:13.564Z,68.90
2018-03-07T16:59:17.699Z,69.70
2018-03-07T17:04:20.308Z,69.90
2018-03-07T17:09:22.886Z,69.80
2018-03-07T17:14:25.480Z,70.20
2018-03-07T17:19:28.093Z,70.20
2018-03-07T17:24:31.395Z,70.60
2018-03-07T17:29:35.144Z,70.20
2018-03-07T17:34:37.729Z,70.50
2018-03-07T17:39:40.316Z,70.30
2018-03-07T17:44:42.923Z,70.50
2018-03-07T17:49:45.553Z,70.30
2018-03-07T17:54:48.640Z,70.40
2018-03-07T17:59:51.468Z,70.20
2018-03-07T18:04:54.188Z,70.20
2018-03-07T18:09:57.108Z,70.20
2018-03-07T18:15:02.005Z,69.50
2018-03-07T18:20:06.090Z,69.10
2018-03-07T18:25:09.446Z,69.00
2018-03-07T18:30:12.134Z,69.00
2018-03-07T18:35:15.091Z,68.00
2018-03-07T18:40:18.320Z,67.80
2018-03-07T18:45:21.319Z,67.90
2018-03-07T18:50:25.170Z,68.20
2018-03-07T18:55:28.567Z,68.70
2018-03-07T19:00:34.728Z,68.60
2018-03-07T19:05:37.447Z,68.60
2018-03-07T19:10:40.829Z,69.10
2018-03-07T19:15:43.453Z,69.00
2018-03-07T19:20:47.219Z,69.70
2018-03-07T19:25:49.842Z,69.70
2018-03-07T19:30:53.238Z,70.00
2018-03-07T19:35:55.836Z,70.20
2018-03-07T19:40:59.108Z,70.10
2018-03-07T19:46:01.803Z,70.30
2018-03-07T19:51:04.393Z,70.20
2018-03-07T19:56:07.679Z,70.30
2018-03-07T20:01:10.475Z,70.40
2018-03-07T20:06:13.115Z,70.30
2018-03-07T20:11:17.751Z,70.60
2018-03-07T20:16:23.644Z,70.50
2018-03-07T20:21:26.895Z,70.60
2018-03-07T20:26:30.238Z,70.70
2018-03-07T20:31:33.125Z,70.80
2018-03-07T20:36:36.129Z,71.10
2018-03-07T20:41:39.230Z,71.10
2018-03-07T20:46:43.697Z,71.20
2018-03-07T20:51:47.268Z,71.40
2018-03-07T20:56:49.954Z,71.40
2018-03-07T21:01:52.616Z,71.60
2018-03-07T21:06:55.893Z,71.60
2018-03-07T21:11:59.209Z,71.70
2018-03-07T21:17:01.867Z,71.80
2018-03-07T21:22:04.748Z,72.10
2018-03-07T21:27:08.179Z,72.30
2018-03-07T21:32:12.415Z,72.20
2018-03-07T21:37:15.086Z,72.60
2018-03-07T21:42:18.004Z,72.40
2018-03-07T21:47:24.256Z,72.90
2018-03-07T21:52:27.121Z,73.30
2018-03-07T21:57:30.810Z,73.50
2018-03-07T22:02:33.521Z,73.50
2018-03-07T22:07:36.209Z,74.00
2018-03-07T22:12:38.884Z,74.10
2018-03-07T22:17:42.284Z,74.90
2018-03-07T22:22:45.087Z,74.80
2018-03-07T22:27:48.626Z,75.30
2018-03-07T22:32:51.372Z,75.10
2018-03-07T22:37:54.365Z,75.30
2018-03-07T22:42:57.031Z,75.40
2018-03-07T22:48:00.646Z,75.80
2018-03-07T22:53:03.405Z,75.70
2018-03-07T22:58:06.728Z,75.60
2018-03-07T23:03:09.552Z,75.30
2018-03-07T23:08:12.206Z,75.50
2018-03-07T23:13:15.555Z,75.80
2018-03-07T23:18:18.419Z,75.70
2018-03-07T23:23:21.368Z,75.80
2018-03-07T23:28:24.187Z,75.70
2018-03-07T23:33:27.023Z,76.10
2018-03-07T23:38:29.679Z,75.70
2018-03-07T23:43:33.859Z,75.70
2018-03-07T23:48:37.336Z,76.00
2018-03-07T23:53:40.617Z,75.90
2018-03-07T23:58:45.632Z,76.90
